PWSweather.com
Personal Weather Stations
Station Observations
MADWEATHER
MadeiraPT

MadeiraPT

Lat: 32.735, Lon: -17.194

Elevation: 1063

Station Type: Davis VantagePro2

Latest ConditionsUpdated 8:10:00 AM GMT Monday, Nov 19, 2018
Currently Today's Max Today's Min Today's Average
Temperature 56.2°F13.4°C 57.3°F14.1°C 55.7°F13.2°C 56.4°F13.6°C
Dew Point 48.4°F9.1°C 51.2°F10.7°C 48.4°F9.1°C 49.6°F9.8°C
Winds 5.2 mph NE8.4 kmh NE 8.5 mph -13.7 kmh - - 3.5 mph 5.6 kmh
Wind Gusts 15.0 mph24.1 kmh 15.0 mph24.1 kmh - -
Humidity 75% 83% 73% 78%
Pressure 29.83 in1010.2 mb 29.83 in1010.2 mb 29.81 in1009.5 mb -
Precipitation - 0.06 in1.5 mm - -
Hour Temp Dew Point Humidity Winds Wind Gusts Pressure Precip Precip Rate Daily Precip Total
08:10 AM 56.2°F13.4°C 48.4°F9.1°C 75% 5.2 mph NE8.4 kmh NE 15.0 mph24.1 kmh 29.83 in1010.2 mb - 0.00 in0.0 mm 0.06 in1.5 mm
08:00 AM 56.1°F13.4°C 48.6°F9.2°C 76% 5.2 mph N8.4 kmh N 7.0 mph11.3 kmh 29.83 in1010.2 mb - 0.00 in0.0 mm 0.06 in1.5 mm
07:50 AM 55.9°F13.3°C 49.2°F9.6°C 78% 5.0 mph NNE8.0 kmh NNE 11.0 mph17.7 kmh 29.83 in1010.2 mb - 0.00 in0.0 mm 0.06 in1.5 mm
07:40 AM 55.7°F13.2°C 49.3°F9.6°C 79% 8.4 mph N13.5 kmh N 11.0 mph17.7 kmh 29.83 in1010.2 mb - 0.00 in0.0 mm 0.06 in1.5 mm
07:30 AM 55.7°F13.2°C 50.0°F10.0°C 81% 6.1 mph NW9.8 kmh NW 10.0 mph16.1 kmh 29.83 in1010.2 mb - 0.01 in0.3 mm 0.06 in1.5 mm
07:20 AM 55.7°F13.2°C 50.0°F10.0°C 81% 7.4 mph NW11.9 kmh NW 12.0 mph19.3 kmh 29.83 in1010.2 mb - 0.00 in0.0 mm 0.06 in1.5 mm
07:10 AM 55.7°F13.2°C 50.0°F10.0°C 81% 3.6 mph NW5.8 kmh NW 13.0 mph20.9 kmh 29.82 in1009.8 mb - 0.00 in0.0 mm 0.06 in1.5 mm
07:00 AM 55.7°F13.2°C 50.3°F10.2°C 82% 1.8 mph N2.9 kmh N 8.0 mph12.9 kmh 29.82 in1009.8 mb - 0.01 in0.3 mm 0.06 in1.5 mm
06:50 AM 55.7°F13.2°C 50.3°F10.2°C 82% 4.3 mph N6.9 kmh N 6.0 mph9.7 kmh 29.82 in1009.8 mb - 0.00 in0.0 mm 0.05 in1.3 mm
06:40 AM 56.1°F13.4°C 50.7°F10.4°C 82% 8.5 mph NW13.7 kmh NW 15.0 mph24.1 kmh 29.82 in1009.8 mb - 0.02 in0.5 mm 0.05 in1.3 mm
06:30 AM 56.0°F13.3°C 49.9°F9.9°C 80% 3.0 mph N4.8 kmh N 4.0 mph6.4 kmh 29.82 in1009.8 mb - 0.00 in0.0 mm 0.03 in0.8 mm
06:20 AM 56.0°F13.3°C 49.9°F9.9°C 80% 2.4 mph N3.9 kmh N 5.0 mph8.0 kmh 29.81 in1009.5 mb - 0.00 in0.0 mm 0.03 in0.8 mm
06:10 AM 56.0°F13.3°C 50.6°F10.3°C 82% 5.5 mph NNW8.9 kmh NNW 10.0 mph16.1 kmh 29.81 in1009.5 mb - 0.00 in0.0 mm 0.03 in0.8 mm
06:00 AM 56.3°F13.5°C 51.2°F10.7°C 83% 3.7 mph NW6.0 kmh NW 7.0 mph11.3 kmh 29.81 in1009.5 mb - 0.02 in0.5 mm 0.03 in0.8 mm
05:50 AM 56.5°F13.6°C 50.7°F10.4°C 81% 3.7 mph NW6.0 kmh NW 6.0 mph9.7 kmh 29.81 in1009.5 mb - 0.00 in0.0 mm 0.02 in0.5 mm
05:40 AM 56.8°F13.8°C 50.7°F10.4°C 80% 4.9 mph NW7.9 kmh NW 6.0 mph9.7 kmh 29.81 in1009.5 mb - 0.00 in0.0 mm 0.02 in0.5 mm
05:30 AM 56.8°F13.8°C 50.4°F10.2°C 79% 1.4 mph NW2.3 kmh NW 5.0 mph8.0 kmh 29.81 in1009.5 mb - 0.00 in0.0 mm 0.02 in0.5 mm
05:20 AM 56.8°F13.8°C 50.0°F10.0°C 78% 2.7 mph NW4.3 kmh NW 4.0 mph6.4 kmh 29.81 in1009.5 mb - 0.00 in0.0 mm 0.02 in0.5 mm
05:10 AM 56.6°F13.7°C 49.8°F9.9°C 78% 6.4 mph NW10.3 kmh NW 7.0 mph11.3 kmh 29.81 in1009.5 mb - 0.00 in0.0 mm 0.02 in0.5 mm
05:00 AM 56.2°F13.4°C 49.4°F9.7°C 78% 2.0 mph NNW3.2 kmh NNW 7.0 mph11.3 kmh 29.81 in1009.5 mb - 0.00 in0.0 mm 0.02 in0.5 mm
04:50 AM 55.9°F13.3°C 49.5°F9.7°C 79% 3.4 mph NW5.5 kmh NW 12.0 mph19.3 kmh 29.81 in1009.5 mb - 0.00 in0.0 mm 0.02 in0.5 mm
04:40 AM 55.8°F13.2°C 49.4°F9.7°C 79% 1.1 mph NW1.8 kmh NW 2.0 mph3.2 kmh 29.81 in1009.5 mb - 0.00 in0.0 mm 0.02 in0.5 mm
04:30 AM 55.8°F13.2°C 49.7°F9.8°C 80% 3.6 mph NW5.8 kmh NW 7.0 mph11.3 kmh 29.81 in1009.5 mb - 0.00 in0.0 mm 0.02 in0.5 mm
04:20 AM 55.9°F13.3°C 49.8°F9.9°C 80% 2.5 mph NW4.0 kmh NW 4.0 mph6.4 kmh 29.81 in1009.5 mb - 0.00 in0.0 mm 0.02 in0.5 mm
04:10 AM 55.7°F13.2°C 48.9°F9.4°C 78% 3.3 mph NNW5.3 kmh NNW 5.0 mph8.0 kmh 29.81 in1009.5 mb - 0.00 in0.0 mm 0.02 in0.5 mm
04:00 AM 55.7°F13.2°C 49.0°F9.4°C 78% 2.2 mph N3.5 kmh N 5.0 mph8.0 kmh 29.81 in1009.5 mb - 0.00 in0.0 mm 0.02 in0.5 mm
03:50 AM 55.7°F13.2°C 49.7°F9.8°C 80% 3.6 mph N5.8 kmh N 7.0 mph11.3 kmh 29.81 in1009.5 mb - 0.00 in0.0 mm 0.02 in0.5 mm
03:40 AM 55.7°F13.2°C 50.0°F10.0°C 81% 6.2 mph N10.0 kmh N 11.0 mph17.7 kmh 29.81 in1009.5 mb - 0.00 in0.0 mm 0.02 in0.5 mm
03:30 AM 56.2°F13.4°C 50.4°F10.2°C 81% 7.6 mph N12.2 kmh N 10.0 mph16.1 kmh 29.82 in1009.8 mb - 0.00 in0.0 mm 0.02 in0.5 mm
03:20 AM 56.8°F13.8°C 51.1°F10.6°C 81% 5.6 mph NNW9.0 kmh NNW 14.0 mph22.5 kmh 29.81 in1009.5 mb - 0.02 in0.5 mm 0.02 in0.5 mm
03:10 AM 57.2°F14.0°C 50.4°F10.2°C 78% 1.4 mph NW2.3 kmh NW 3.0 mph4.8 kmh 29.81 in1009.5 mb - 0.00 in0.0 mm 0.00 in0.0 mm
03:00 AM 56.9°F13.8°C 49.4°F9.7°C 76% 1.7 mph NW2.7 kmh NW 4.0 mph6.4 kmh 29.81 in1009.5 mb - 0.00 in0.0 mm 0.00 in0.0 mm
02:50 AM 56.7°F13.7°C 49.2°F9.6°C 76% 4.2 mph NW6.8 kmh NW 9.0 mph14.5 kmh 29.81 in1009.5 mb - 0.00 in0.0 mm 0.00 in0.0 mm
02:40 AM 56.7°F13.7°C 49.6°F9.8°C 77% 3.0 mph NNW4.8 kmh NNW 5.0 mph8.0 kmh 29.81 in1009.5 mb - 0.00 in0.0 mm 0.00 in0.0 mm
02:30 AM 56.7°F13.7°C 49.3°F9.6°C 76% 0.7 mph NNW1.1 kmh NNW 9.0 mph14.5 kmh 29.81 in1009.5 mb - 0.00 in0.0 mm 0.00 in0.0 mm
02:20 AM 56.7°F13.7°C 48.9°F9.4°C 75% 1.8 mph NNW2.9 kmh NNW 5.0 mph8.0 kmh 29.81 in1009.5 mb - 0.00 in0.0 mm 0.00 in0.0 mm
02:10 AM 56.7°F13.7°C 48.5°F9.2°C 74% 3.3 mph NNW5.3 kmh NNW 5.0 mph8.0 kmh 29.82 in1009.8 mb - 0.00 in0.0 mm 0.00 in0.0 mm
02:00 AM 56.9°F13.8°C 48.7°F9.3°C 74% 3.7 mph NNW6.0 kmh NNW 6.0 mph9.7 kmh 29.81 in1009.5 mb - 0.00 in0.0 mm 0.00 in0.0 mm
01:50 AM 57.1°F13.9°C 48.9°F9.4°C 74% 0.2 mph NNW0.3 kmh NNW 2.0 mph3.2 kmh 29.81 in1009.5 mb - 0.00 in0.0 mm 0.00 in0.0 mm
01:40 AM 57.3°F14.1°C 49.1°F9.5°C 74% 0.9 mph NNW1.4 kmh NNW 2.0 mph3.2 kmh 29.81 in1009.5 mb - 0.00 in0.0 mm 0.00 in0.0 mm
01:30 AM 57.2°F14.0°C 49.7°F9.8°C 76% 4.0 mph NNW6.4 kmh NNW 9.0 mph14.5 kmh 29.81 in1009.5 mb - 0.00 in0.0 mm 0.00 in0.0 mm
01:20 AM 56.9°F13.8°C 49.4°F9.7°C 76% 1.6 mph NNW2.6 kmh NNW 6.0 mph9.7 kmh 29.82 in1009.8 mb - 0.00 in0.0 mm 0.00 in0.0 mm
01:10 AM 56.9°F13.8°C 50.1°F10.1°C 78% 1.6 mph N2.6 kmh N 3.0 mph4.8 kmh 29.82 in1009.8 mb - 0.00 in0.0 mm 0.00 in0.0 mm
01:00 AM 56.9°F13.8°C 49.8°F9.9°C 77% 2.3 mph N3.7 kmh N 5.0 mph8.0 kmh 29.82 in1009.8 mb - 0.00 in0.0 mm 0.00 in0.0 mm
12:50 AM 56.7°F13.7°C 48.5°F9.2°C 74% 0.3 mph N0.5 kmh N 1.0 mph1.6 kmh 29.82 in1009.8 mb - 0.00 in0.0 mm 0.00 in0.0 mm
12:40 AM 56.8°F13.8°C 48.6°F9.2°C 74% 0.9 mph N1.4 kmh N 5.0 mph8.0 kmh 29.83 in1010.2 mb - 0.00 in0.0 mm 0.00 in0.0 mm
12:30 AM 57.0°F13.9°C 48.4°F9.1°C 73% 3.9 mph N6.3 kmh N 8.0 mph12.9 kmh 29.83 in1010.2 mb - 0.00 in0.0 mm 0.00 in0.0 mm
12:20 AM 57.0°F13.9°C 48.8°F9.3°C 74% 1.4 mph N2.3 kmh N 6.0 mph9.7 kmh 29.83 in1010.2 mb - 0.00 in0.0 mm 0.00 in0.0 mm
12:10 AM 57.1°F13.9°C 48.9°F9.4°C 74% 4.0 mph N6.4 kmh N 7.0 mph11.3 kmh 29.83 in1010.2 mb - 0.00 in0.0 mm 0.00 in0.0 mm
12:00 AM 57.2°F14.0°C 49.0°F9.4°C 74% 2.3 mph NNW3.7 kmh NNW 5.0 mph8.0 kmh 29.83 in1010.2 mb - 0.00 in0.0 mm 0.00 in0.0 mm